sensor_id;sensor_type;location;lat;lon;timestamp;P1;durP1;ratioP1;P2;durP2;ratioP2
15418;SDS011;7808;43.712;23.098;2022-07-22T00:02:14;3.78;;;3.50;;
15418;SDS011;7808;43.712;23.098;2022-07-22T00:04:41;3.53;;;3.33;;
15418;SDS011;7808;43.712;23.098;2022-07-22T00:07:09;4.22;;;3.85;;
15418;SDS011;7808;43.712;23.098;2022-07-22T00:09:36;5.10;;;3.78;;
15418;SDS011;7808;43.712;23.098;2022-07-22T00:12:03;6.25;;;3.88;;
15418;SDS011;7808;43.712;23.098;2022-07-22T00:14:30;3.90;;;3.60;;
15418;SDS011;7808;43.712;23.098;2022-07-22T00:16:57;3.55;;;3.35;;
15418;SDS011;7808;43.712;23.098;2022-07-22T00:19:24;7.03;;;3.50;;
15418;SDS011;7808;43.712;23.098;2022-07-22T00:21:51;3.90;;;3.58;;
15418;SDS011;7808;43.712;23.098;2022-07-22T00:24:20;6.25;;;3.45;;
15418;SDS011;7808;43.712;23.098;2022-07-22T00:26:47;3.65;;;3.33;;
15418;SDS011;7808;43.712;23.098;2022-07-22T00:29:14;4.45;;;4.05;;
15418;SDS011;7808;43.712;23.098;2022-07-22T00:31:41;3.45;;;3.25;;
15418;SDS011;7808;43.712;23.098;2022-07-22T00:34:08;5.03;;;3.53;;
15418;SDS011;7808;43.712;23.098;2022-07-22T00:36:35;6.90;;;3.70;;
15418;SDS011;7808;43.712;23.098;2022-07-22T00:39:02;3.78;;;3.38;;
15418;SDS011;7808;43.712;23.098;2022-07-22T00:41:30;7.28;;;3.65;;
15418;SDS011;7808;43.712;23.098;2022-07-22T00:43:58;3.60;;;3.30;;
15418;SDS011;7808;43.712;23.098;2022-07-22T00:46:28;3.80;;;3.50;;
15418;SDS011;7808;43.712;23.098;2022-07-22T00:48:56;5.05;;;3.63;;
15418;SDS011;7808;43.712;23.098;2022-07-22T00:51:23;3.83;;;3.63;;
15418;SDS011;7808;43.712;23.098;2022-07-22T00:53:52;3.50;;;3.20;;
15418;SDS011;7808;43.712;23.098;2022-07-22T00:56:22;3.50;;;3.30;;
15418;SDS011;7808;43.712;23.098;2022-07-22T00:58:52;3.70;;;3.50;;
15418;SDS011;7808;43.712;23.098;2022-07-22T01:01:20;4.28;;;3.88;;
15418;SDS011;7808;43.712;23.098;2022-07-22T01:03:46;6.63;;;3.97;;
15418;SDS011;7808;43.712;23.098;2022-07-22T01:06:13;3.92;;;3.63;;
15418;SDS011;7808;43.712;23.098;2022-07-22T01:08:40;4.22;;;3.10;;
15418;SDS011;7808;43.712;23.098;2022-07-22T01:11:08;4.03;;;3.60;;
15418;SDS011;7808;43.712;23.098;2022-07-22T01:13:36;4.37;;;4.00;;
15418;SDS011;7808;43.712;23.098;2022-07-22T01:16:05;3.95;;;3.55;;
15418;SDS011;7808;43.712;23.098;2022-07-22T01:18:33;3.60;;;3.40;;
15418;SDS011;7808;43.712;23.098;2022-07-22T01:21:02;3.42;;;3.13;;
15418;SDS011;7808;43.712;23.098;2022-07-22T01:23:29;3.65;;;3.47;;
15418;SDS011;7808;43.712;23.098;2022-07-22T01:25:56;3.53;;;3.23;;
15418;SDS011;7808;43.712;23.098;2022-07-22T01:28:23;4.53;;;3.10;;
15418;SDS011;7808;43.712;23.098;2022-07-22T01:30:50;3.72;;;3.38;;
15418;SDS011;7808;43.712;23.098;2022-07-22T01:33:17;3.67;;;3.10;;
15418;SDS011;7808;43.712;23.098;2022-07-22T01:35:45;3.95;;;3.60;;
15418;SDS011;7808;43.712;23.098;2022-07-22T01:38:14;3.47;;;3.27;;
15418;SDS011;7808;43.712;23.098;2022-07-22T01:40:42;3.93;;;3.63;;
15418;SDS011;7808;43.712;23.098;2022-07-22T01:43:10;4.07;;;3.70;;
15418;SDS011;7808;43.712;23.098;2022-07-22T01:45:38;3.60;;;3.40;;
15418;SDS011;7808;43.712;23.098;2022-07-22T01:48:05;3.85;;;3.55;;
15418;SDS011;7808;43.712;23.098;2022-07-22T01:50:32;3.60;;;3.40;;
15418;SDS011;7808;43.712;23.098;2022-07-22T01:52:59;4.00;;;3.67;;
15418;SDS011;7808;43.712;23.098;2022-07-22T01:55:28;4.20;;;3.80;;
15418;SDS011;7808;43.712;23.098;2022-07-22T01:57:55;3.87;;;3.57;;
15418;SDS011;7808;43.712;23.098;2022-07-22T02:00:21;3.90;;;3.50;;
15418;SDS011;7808;43.712;23.098;2022-07-22T02:02:48;3.67;;;3.47;;
15418;SDS011;7808;43.712;23.098;2022-07-22T02:05:15;5.07;;;3.40;;
15418;SDS011;7808;43.712;23.098;2022-07-22T02:07:42;4.13;;;3.83;;
15418;SDS011;7808;43.712;23.098;2022-07-22T02:10:09;4.03;;;3.73;;
15418;SDS011;7808;43.712;23.098;2022-07-22T02:12:37;5.03;;;3.70;;
15418;SDS011;7808;43.712;23.098;2022-07-22T02:15:05;3.83;;;3.63;;
15418;SDS011;7808;43.712;23.098;2022-07-22T02:17:33;3.90;;;3.60;;
15418;SDS011;7808;43.712;23.098;2022-07-22T02:20:00;4.50;;;3.20;;
15418;SDS011;7808;43.712;23.098;2022-07-22T02:22:27;3.80;;;3.50;;
15418;SDS011;7808;43.712;23.098;2022-07-22T02:24:55;4.90;;;3.70;;
15418;SDS011;7808;43.712;23.098;2022-07-22T02:27:22;7.00;;;4.17;;
15418;SDS011;7808;43.712;23.098;2022-07-22T02:29:50;4.70;;;4.23;;
15418;SDS011;7808;43.712;23.098;2022-07-22T02:32:17;5.00;;;4.50;;
15418;SDS011;7808;43.712;23.098;2022-07-22T02:34:44;5.57;;;5.07;;
15418;SDS011;7808;43.712;23.098;2022-07-22T02:37:11;6.20;;;4.83;;
15418;SDS011;7808;43.712;23.098;2022-07-22T02:39:38;5.63;;;5.17;;
15418;SDS011;7808;43.712;23.098;2022-07-22T02:42:04;5.80;;;5.37;;
15418;SDS011;7808;43.712;23.098;2022-07-22T02:44:31;6.27;;;5.53;;
15418;SDS011;7808;43.712;23.098;2022-07-22T02:47:00;5.07;;;4.57;;
15418;SDS011;7808;43.712;23.098;2022-07-22T02:49:27;5.57;;;4.53;;
15418;SDS011;7808;43.712;23.098;2022-07-22T02:51:54;4.40;;;4.10;;
15418;SDS011;7808;43.712;23.098;2022-07-22T02:54:21;4.33;;;4.03;;
15418;SDS011;7808;43.712;23.098;2022-07-22T02:56:47;4.13;;;3.70;;
15418;SDS011;7808;43.712;23.098;2022-07-22T02:59:14;4.47;;;4.03;;
15418;SDS011;7808;43.712;23.098;2022-07-22T03:01:41;4.67;;;4.20;;
15418;SDS011;7808;43.712;23.098;2022-07-22T03:04:10;4.60;;;4.20;;
15418;SDS011;7808;43.712;23.098;2022-07-22T03:06:36;4.53;;;3.80;;
15418;SDS011;7808;43.712;23.098;2022-07-22T03:09:03;4.47;;;4.17;;
15418;SDS011;7808;43.712;23.098;2022-07-22T03:11:30;7.57;;;4.70;;
15418;SDS011;7808;43.712;23.098;2022-07-22T03:13:57;5.50;;;4.50;;
15418;SDS011;7808;43.712;23.098;2022-07-22T03:16:24;4.97;;;4.47;;
15418;SDS011;7808;43.712;23.098;2022-07-22T03:18:51;5.23;;;4.70;;
15418;SDS011;7808;43.712;23.098;2022-07-22T03:21:19;5.57;;;4.83;;
15418;SDS011;7808;43.712;23.098;2022-07-22T03:23:46;4.77;;;4.37;;
15418;SDS011;7808;43.712;23.098;2022-07-22T03:26:18;5.23;;;4.73;;
15418;SDS011;7808;43.712;23.098;2022-07-22T03:28:45;5.10;;;4.60;;
15418;SDS011;7808;43.712;23.098;2022-07-22T03:31:12;5.03;;;4.63;;
15418;SDS011;7808;43.712;23.098;2022-07-22T03:33:39;5.03;;;4.57;;
15418;SDS011;7808;43.712;23.098;2022-07-22T03:36:06;5.87;;;5.07;;
15418;SDS011;7808;43.712;23.098;2022-07-22T03:38:35;5.93;;;4.60;;
15418;SDS011;7808;43.712;23.098;2022-07-22T03:41:02;5.27;;;4.77;;
15418;SDS011;7808;43.712;23.098;2022-07-22T03:43:29;5.60;;;5.10;;
15418;SDS011;7808;43.712;23.098;2022-07-22T03:45:56;5.33;;;4.87;;
15418;SDS011;7808;43.712;23.098;2022-07-22T03:48:23;5.70;;;4.43;;
15418;SDS011;7808;43.712;23.098;2022-07-22T03:50:50;6.17;;;5.57;;
15418;SDS011;7808;43.712;23.098;2022-07-22T03:53:17;5.93;;;5.20;;
15418;SDS011;7808;43.712;23.098;2022-07-22T03:55:46;7.03;;;5.90;;
15418;SDS011;7808;43.712;23.098;2022-07-22T03:58:13;5.43;;;4.93;;
15418;SDS011;7808;43.712;23.098;2022-07-22T04:00:42;5.40;;;4.80;;
15418;SDS011;7808;43.712;23.098;2022-07-22T04:03:09;5.77;;;5.27;;
15418;SDS011;7808;43.712;23.098;2022-07-22T04:05:36;5.20;;;4.70;;
15418;SDS011;7808;43.712;23.098;2022-07-22T04:08:03;5.27;;;4.77;;
15418;SDS011;7808;43.712;23.098;2022-07-22T04:10:30;4.93;;;4.53;;
15418;SDS011;7808;43.712;23.098;2022-07-22T04:12:59;5.07;;;4.63;;
15418;SDS011;7808;43.712;23.098;2022-07-22T04:15:26;5.53;;;4.57;;
15418;SDS011;7808;43.712;23.098;2022-07-22T04:17:53;4.87;;;4.40;;
15418;SDS011;7808;43.712;23.098;2022-07-22T04:20:20;4.80;;;4.50;;
15418;SDS011;7808;43.712;23.098;2022-07-22T04:22:47;5.05;;;4.65;;
15418;SDS011;7808;43.712;23.098;2022-07-22T04:25:14;4.70;;;4.33;;
15418;SDS011;7808;43.712;23.098;2022-07-22T04:27:41;6.03;;;4.93;;
15418;SDS011;7808;43.712;23.098;2022-07-22T04:30:10;5.03;;;4.70;;
15418;SDS011;7808;43.712;23.098;2022-07-22T04:32:37;5.75;;;5.10;;
15418;SDS011;7808;43.712;23.098;2022-07-22T04:35:05;5.70;;;5.20;;
15418;SDS011;7808;43.712;23.098;2022-07-22T04:37:32;6.93;;;6.20;;
15418;SDS011;7808;43.712;23.098;2022-07-22T04:39:59;6.47;;;5.43;;
15418;SDS011;7808;43.712;23.098;2022-07-22T04:42:26;7.28;;;6.45;;
15418;SDS011;7808;43.712;23.098;2022-07-22T04:44:53;7.40;;;6.27;;
15418;SDS011;7808;43.712;23.098;2022-07-22T04:47:21;6.50;;;5.90;;
15418;SDS011;7808;43.712;23.098;2022-07-22T04:49:48;7.07;;;6.35;;
15418;SDS011;7808;43.712;23.098;2022-07-22T04:52:15;5.90;;;5.40;;
15418;SDS011;7808;43.712;23.098;2022-07-22T04:54:42;6.80;;;5.72;;
15418;SDS011;7808;43.712;23.098;2022-07-22T04:57:09;6.10;;;5.22;;
15418;SDS011;7808;43.712;23.098;2022-07-22T04:59:36;5.03;;;4.53;;
15418;SDS011;7808;43.712;23.098;2022-07-22T05:02:03;5.20;;;4.80;;
15418;SDS011;7808;43.712;23.098;2022-07-22T05:04:31;4.60;;;4.20;;
15418;SDS011;7808;43.712;23.098;2022-07-22T05:06:58;12.38;;;4.10;;
15418;SDS011;7808;43.712;23.098;2022-07-22T05:09:25;4.35;;;4.00;;
15418;SDS011;7808;43.712;23.098;2022-07-22T05:11:52;5.43;;;4.00;;
15418;SDS011;7808;43.712;23.098;2022-07-22T05:14:19;4.53;;;4.22;;
15418;SDS011;7808;43.712;23.098;2022-07-22T05:16:46;3.72;;;3.42;;
15418;SDS011;7808;43.712;23.098;2022-07-22T05:19:13;4.50;;;4.10;;
15418;SDS011;7808;43.712;23.098;2022-07-22T05:21:41;4.63;;;3.42;;
15418;SDS011;7808;43.712;23.098;2022-07-22T05:24:08;4.10;;;3.75;;
15418;SDS011;7808;43.712;23.098;2022-07-22T05:26:35;5.78;;;3.45;;
15418;SDS011;7808;43.712;23.098;2022-07-22T05:29:02;3.90;;;3.53;;
15418;SDS011;7808;43.712;23.098;2022-07-22T05:31:29;4.15;;;3.67;;
15418;SDS011;7808;43.712;23.098;2022-07-22T05:33:56;4.32;;;3.60;;
15418;SDS011;7808;43.712;23.098;2022-07-22T05:36:23;3.88;;;3.60;;
15418;SDS011;7808;43.712;23.098;2022-07-22T05:38:51;4.05;;;3.75;;
15418;SDS011;7808;43.712;23.098;2022-07-22T05:41:18;3.67;;;3.47;;
15418;SDS011;7808;43.712;23.098;2022-07-22T05:43:45;4.57;;;3.88;;
15418;SDS011;7808;43.712;23.098;2022-07-22T05:46:12;3.90;;;3.70;;
15418;SDS011;7808;43.712;23.098;2022-07-22T05:48:39;8.45;;;3.83;;
15418;SDS011;7808;43.712;23.098;2022-07-22T05:51:09;4.22;;;3.80;;
15418;SDS011;7808;43.712;23.098;2022-07-22T05:53:37;3.97;;;3.78;;
15418;SDS011;7808;43.712;23.098;2022-07-22T05:56:06;3.85;;;3.60;;
15418;SDS011;7808;43.712;23.098;2022-07-22T05:58:33;4.28;;;3.47;;
15418;SDS011;7808;43.712;23.098;2022-07-22T06:01:00;3.53;;;3.33;;
15418;SDS011;7808;43.712;23.098;2022-07-22T06:03:27;3.55;;;3.35;;
15418;SDS011;7808;43.712;23.098;2022-07-22T06:05:54;3.60;;;3.35;;
15418;SDS011;7808;43.712;23.098;2022-07-22T06:08:21;3.88;;;3.58;;
15418;SDS011;7808;43.712;23.098;2022-07-22T06:10:48;3.55;;;3.25;;
15418;SDS011;7808;43.712;23.098;2022-07-22T06:13:17;3.30;;;3.10;;
15418;SDS011;7808;43.712;23.098;2022-07-22T06:15:43;3.67;;;3.45;;
15418;SDS011;7808;43.712;23.098;2022-07-22T06:18:10;4.85;;;3.58;;
15418;SDS011;7808;43.712;23.098;2022-07-22T06:20:37;3.60;;;3.28;;
15418;SDS011;7808;43.712;23.098;2022-07-22T06:23:04;7.78;;;3.72;;
15418;SDS011;7808;43.712;23.098;2022-07-22T06:25:31;3.70;;;3.40;;
15418;SDS011;7808;43.712;23.098;2022-07-22T06:27:58;5.07;;;3.80;;
15418;SDS011;7808;43.712;23.098;2022-07-22T06:30:26;3.63;;;3.42;;
15418;SDS011;7808;43.712;23.098;2022-07-22T06:32:53;3.67;;;3.35;;
15418;SDS011;7808;43.712;23.098;2022-07-22T06:35:20;3.63;;;3.42;;
15418;SDS011;7808;43.712;23.098;2022-07-22T06:37:49;3.33;;;3.15;;
15418;SDS011;7808;43.712;23.098;2022-07-22T06:40:16;4.38;;;3.35;;
15418;SDS011;7808;43.712;23.098;2022-07-22T06:42:44;3.88;;;3.67;;
15418;SDS011;7808;43.712;23.098;2022-07-22T06:45:11;4.15;;;3.85;;
15418;SDS011;7808;43.712;23.098;2022-07-22T06:47:39;4.00;;;3.63;;
15418;SDS011;7808;43.712;23.098;2022-07-22T06:50:07;3.65;;;3.35;;
15418;SDS011;7808;43.712;23.098;2022-07-22T06:52:37;4.00;;;3.70;;
15418;SDS011;7808;43.712;23.098;2022-07-22T06:55:05;4.07;;;3.70;;
15418;SDS011;7808;43.712;23.098;2022-07-22T06:57:33;3.38;;;3.20;;
15418;SDS011;7808;43.712;23.098;2022-07-22T07:00:00;4.00;;;3.63;;
15418;SDS011;7808;43.712;23.098;2022-07-22T07:02:27;3.80;;;3.45;;
15418;SDS011;7808;43.712;23.098;2022-07-22T07:04:56;3.70;;;3.40;;
15418;SDS011;7808;43.712;23.098;2022-07-22T07:07:22;3.63;;;3.42;;
15418;SDS011;7808;43.712;23.098;2022-07-22T07:09:49;3.80;;;3.38;;
15418;SDS011;7808;43.712;23.098;2022-07-22T07:12:16;3.70;;;3.50;;
15418;SDS011;7808;43.712;23.098;2022-07-22T07:14:43;5.43;;;3.65;;
15418;SDS011;7808;43.712;23.098;2022-07-22T07:17:10;3.55;;;3.45;;
15418;SDS011;7808;43.712;23.098;2022-07-22T07:19:37;3.63;;;3.40;;
15418;SDS011;7808;43.712;23.098;2022-07-22T07:22:05;6.82;;;3.80;;
15418;SDS011;7808;43.712;23.098;2022-07-22T07:24:32;3.80;;;3.50;;
15418;SDS011;7808;43.712;23.098;2022-07-22T07:26:59;4.03;;;3.65;;
15418;SDS011;7808;43.712;23.098;2022-07-22T07:29:26;4.70;;;3.50;;
15418;SDS011;7808;43.712;23.098;2022-07-22T07:31:53;4.80;;;3.55;;
15418;SDS011;7808;43.712;23.098;2022-07-22T07:34:20;3.47;;;3.28;;
15418;SDS011;7808;43.712;23.098;2022-07-22T07:36:47;4.13;;;3.83;;
15418;SDS011;7808;43.712;23.098;2022-07-22T07:39:15;4.20;;;3.78;;
15418;SDS011;7808;43.712;23.098;2022-07-22T07:41:42;3.88;;;3.50;;
15418;SDS011;7808;43.712;23.098;2022-07-22T07:44:09;3.75;;;3.40;;
15418;SDS011;7808;43.712;23.098;2022-07-22T07:46:36;3.83;;;3.50;;
15418;SDS011;7808;43.712;23.098;2022-07-22T07:49:03;4.03;;;3.70;;
15418;SDS011;7808;43.712;23.098;2022-07-22T07:51:29;4.18;;;3.58;;
15418;SDS011;7808;43.712;23.098;2022-07-22T07:53:56;3.45;;;3.25;;
15418;SDS011;7808;43.712;23.098;2022-07-22T07:56:25;3.95;;;3.55;;
15418;SDS011;7808;43.712;23.098;2022-07-22T07:58:51;3.85;;;3.47;;
15418;SDS011;7808;43.712;23.098;2022-07-22T08:01:18;3.45;;;3.25;;
15418;SDS011;7808;43.712;23.098;2022-07-22T08:03:45;3.78;;;3.47;;
15418;SDS011;7808;43.712;23.098;2022-07-22T08:06:12;4.00;;;3.70;;
15418;SDS011;7808;43.712;23.098;2022-07-22T08:08:39;3.72;;;3.50;;
15418;SDS011;7808;43.712;23.098;2022-07-22T08:11:06;4.30;;;4.00;;
15418;SDS011;7808;43.712;23.098;2022-07-22T08:13:34;3.40;;;3.22;;
15418;SDS011;7808;43.712;23.098;2022-07-22T08:16:01;3.70;;;3.45;;
15418;SDS011;7808;43.712;23.098;2022-07-22T08:18:29;3.85;;;3.55;;
15418;SDS011;7808;43.712;23.098;2022-07-22T08:20:56;3.90;;;3.70;;
15418;SDS011;7808;43.712;23.098;2022-07-22T08:23:23;3.67;;;3.47;;
15418;SDS011;7808;43.712;23.098;2022-07-22T08:25:50;3.80;;;3.60;;
15418;SDS011;7808;43.712;23.098;2022-07-22T08:28:17;3.85;;;3.65;;
15418;SDS011;7808;43.712;23.098;2022-07-22T08:30:45;3.78;;;3.58;;
15418;SDS011;7808;43.712;23.098;2022-07-22T08:33:12;3.63;;;3.42;;
15418;SDS011;7808;43.712;23.098;2022-07-22T08:35:39;4.55;;;3.53;;
15418;SDS011;7808;43.712;23.098;2022-07-22T08:38:06;3.30;;;3.20;;
15418;SDS011;7808;43.712;23.098;2022-07-22T08:40:33;3.95;;;3.60;;
15418;SDS011;7808;43.712;23.098;2022-07-22T08:43:01;4.00;;;3.80;;
15418;SDS011;7808;43.712;23.098;2022-07-22T08:45:28;6.93;;;3.67;;
15418;SDS011;7808;43.712;23.098;2022-07-22T08:47:57;3.58;;;3.38;;
15418;SDS011;7808;43.712;23.098;2022-07-22T08:50:28;3.80;;;3.60;;
15418;SDS011;7808;43.712;23.098;2022-07-22T08:52:55;4.05;;;3.75;;
15418;SDS011;7808;43.712;23.098;2022-07-22T08:55:23;3.92;;;3.63;;
15418;SDS011;7808;43.712;23.098;2022-07-22T08:57:50;8.27;;;3.63;;
15418;SDS011;7808;43.712;23.098;2022-07-22T09:00:18;3.40;;;3.30;;
15418;SDS011;7808;43.712;23.098;2022-07-22T09:02:46;3.67;;;3.50;;
15418;SDS011;7808;43.712;23.098;2022-07-22T09:05:16;3.55;;;3.30;;
15418;SDS011;7808;43.712;23.098;2022-07-22T09:07:44;3.72;;;3.53;;
15418;SDS011;7808;43.712;23.098;2022-07-22T09:10:12;3.85;;;3.53;;
15418;SDS011;7808;43.712;23.098;2022-07-22T09:12:50;3.25;;;3.08;;
15418;SDS011;7808;43.712;23.098;2022-07-22T09:15:24;3.67;;;3.38;;
15418;SDS011;7808;43.712;23.098;2022-07-22T09:17:53;4.18;;;3.92;;
15418;SDS011;7808;43.712;23.098;2022-07-22T09:20:22;5.05;;;4.03;;
15418;SDS011;7808;43.712;23.098;2022-07-22T09:22:49;3.65;;;3.40;;
15418;SDS011;7808;43.712;23.098;2022-07-22T09:25:18;3.80;;;3.53;;
15418;SDS011;7808;43.712;23.098;2022-07-22T09:27:48;3.55;;;3.35;;
15418;SDS011;7808;43.712;23.098;2022-07-22T09:30:18;3.40;;;3.30;;
15418;SDS011;7808;43.712;23.098;2022-07-22T09:32:47;3.72;;;3.53;;
15418;SDS011;7808;43.712;23.098;2022-07-22T09:35:14;3.53;;;3.33;;
15418;SDS011;7808;43.712;23.098;2022-07-22T09:37:49;4.20;;;3.40;;
15418;SDS011;7808;43.712;23.098;2022-07-22T09:40:17;3.92;;;3.72;;
15418;SDS011;7808;43.712;23.098;2022-07-22T09:42:47;3.55;;;3.35;;
15418;SDS011;7808;43.712;23.098;2022-07-22T09:45:16;3.30;;;3.10;;
15418;SDS011;7808;43.712;23.098;2022-07-22T09:47:44;3.88;;;3.58;;
15418;SDS011;7808;43.712;23.098;2022-07-22T09:50:14;3.65;;;3.35;;
15418;SDS011;7808;43.712;23.098;2022-07-22T09:52:43;3.60;;;3.30;;
15418;SDS011;7808;43.712;23.098;2022-07-22T09:55:12;3.75;;;3.20;;
15418;SDS011;7808;43.712;23.098;2022-07-22T09:57:40;3.33;;;3.22;;
15418;SDS011;7808;43.712;23.098;2022-07-22T10:00:07;3.83;;;3.53;;
15418;SDS011;7808;43.712;23.098;2022-07-22T10:02:36;3.60;;;3.40;;
15418;SDS011;7808;43.712;23.098;2022-07-22T10:05:08;3.63;;;3.42;;
15418;SDS011;7808;43.712;23.098;2022-07-22T10:07:38;3.95;;;3.55;;
15418;SDS011;7808;43.712;23.098;2022-07-22T10:10:07;3.45;;;3.25;;
15418;SDS011;7808;43.712;23.098;2022-07-22T10:12:37;3.60;;;3.40;;
15418;SDS011;7808;43.712;23.098;2022-07-22T10:15:05;3.53;;;3.22;;
15418;SDS011;7808;43.712;23.098;2022-07-22T10:17:34;3.90;;;3.60;;
15418;SDS011;7808;43.712;23.098;2022-07-22T10:20:03;3.97;;;3.30;;
15418;SDS011;7808;43.712;23.098;2022-07-22T10:22:48;7.13;;;3.10;;
15418;SDS011;7808;43.712;23.098;2022-07-22T10:25:20;3.80;;;3.63;;
15418;SDS011;7808;43.712;23.098;2022-07-22T10:27:51;2.92;;;2.83;;
15418;SDS011;7808;43.712;23.098;2022-07-22T10:30:20;3.33;;;3.22;;
15418;SDS011;7808;43.712;23.098;2022-07-22T10:33:04;3.30;;;3.10;;
15418;SDS011;7808;43.712;23.098;2022-07-22T10:35:34;3.90;;;3.60;;
15418;SDS011;7808;43.712;23.098;2022-07-22T10:38:04;3.28;;;3.05;;
15418;SDS011;7808;43.712;23.098;2022-07-22T10:40:45;3.35;;;3.15;;
15418;SDS011;7808;43.712;23.098;2022-07-22T10:43:15;3.85;;;3.20;;
15418;SDS011;7808;43.712;23.098;2022-07-22T10:45:45;3.45;;;3.17;;
15418;SDS011;7808;43.712;23.098;2022-07-22T10:48:15;3.50;;;3.25;;
15418;SDS011;7808;43.712;23.098;2022-07-22T10:50:44;3.10;;;3.00;;
15418;SDS011;7808;43.712;23.098;2022-07-22T10:53:15;3.75;;;3.47;;
15418;SDS011;7808;43.712;23.098;2022-07-22T10:56:00;3.85;;;3.63;;
15418;SDS011;7808;43.712;23.098;2022-07-22T10:58:50;3.55;;;3.35;;
15418;SDS011;7808;43.712;23.098;2022-07-22T11:01:19;2.90;;;2.80;;
15418;SDS011;7808;43.712;23.098;2022-07-22T11:03:49;4.07;;;3.65;;
15418;SDS011;7808;43.712;23.098;2022-07-22T11:06:20;3.22;;;3.03;;
15418;SDS011;7808;43.712;23.098;2022-07-22T11:08:50;3.15;;;3.05;;
15418;SDS011;7808;43.712;23.098;2022-07-22T11:11:30;3.38;;;3.28;;
15418;SDS011;7808;43.712;23.098;2022-07-22T11:14:00;4.10;;;3.63;;
15418;SDS011;7808;43.712;23.098;2022-07-22T11:16:27;3.28;;;3.08;;
15418;SDS011;7808;43.712;23.098;2022-07-22T11:18:56;3.50;;;3.20;;
15418;SDS011;7808;43.712;23.098;2022-07-22T11:21:25;3.50;;;3.20;;
15418;SDS011;7808;43.712;23.098;2022-07-22T11:23:54;3.28;;;3.05;;
15418;SDS011;7808;43.712;23.098;2022-07-22T11:26:24;2.95;;;2.85;;
15418;SDS011;7808;43.712;23.098;2022-07-22T11:28:52;3.25;;;3.00;;
15418;SDS011;7808;43.712;23.098;2022-07-22T11:31:21;3.40;;;3.30;;
15418;SDS011;7808;43.712;23.098;2022-07-22T11:33:47;3.60;;;3.30;;
15418;SDS011;7808;43.712;23.098;2022-07-22T11:36:15;3.08;;;2.90;;
15418;SDS011;7808;43.712;23.098;2022-07-22T11:38:43;3.10;;;2.90;;
15418;SDS011;7808;43.712;23.098;2022-07-22T11:41:12;3.20;;;3.00;;
15418;SDS011;7808;43.712;23.098;2022-07-22T11:43:41;2.97;;;2.88;;
15418;SDS011;7808;43.712;23.098;2022-07-22T11:46:09;3.10;;;2.90;;
15418;SDS011;7808;43.712;23.098;2022-07-22T11:48:39;3.55;;;3.35;;
15418;SDS011;7808;43.712;23.098;2022-07-22T11:51:07;3.13;;;2.92;;
15418;SDS011;7808;43.712;23.098;2022-07-22T11:53:36;3.13;;;2.92;;
15418;SDS011;7808;43.712;23.098;2022-07-22T11:56:04;3.40;;;3.25;;
15418;SDS011;7808;43.712;23.098;2022-07-22T11:58:33;3.00;;;2.90;;
15418;SDS011;7808;43.712;23.098;2022-07-22T12:01:04;2.90;;;2.80;;
15418;SDS011;7808;43.712;23.098;2022-07-22T12:03:32;3.20;;;3.10;;
15418;SDS011;7808;43.712;23.098;2022-07-22T12:06:02;3.33;;;3.10;;
15418;SDS011;7808;43.712;23.098;2022-07-22T12:08:32;3.05;;;2.85;;
15418;SDS011;7808;43.712;23.098;2022-07-22T12:11:00;3.20;;;3.05;;
15418;SDS011;7808;43.712;23.098;2022-07-22T12:13:28;3.40;;;3.20;;
15418;SDS011;7808;43.712;23.098;2022-07-22T12:15:56;3.50;;;3.30;;
15418;SDS011;7808;43.712;23.098;2022-07-22T12:18:24;3.40;;;2.95;;
15418;SDS011;7808;43.712;23.098;2022-07-22T12:20:52;3.13;;;3.03;;
15418;SDS011;7808;43.712;23.098;2022-07-22T12:23:24;3.05;;;2.95;;
15418;SDS011;7808;43.712;23.098;2022-07-22T12:25:53;3.42;;;3.13;;
15418;SDS011;7808;43.712;23.098;2022-07-22T12:28:21;3.08;;;2.97;;
15418;SDS011;7808;43.712;23.098;2022-07-22T12:30:48;3.40;;;2.92;;
15418;SDS011;7808;43.712;23.098;2022-07-22T12:33:17;3.67;;;3.03;;
15418;SDS011;7808;43.712;23.098;2022-07-22T12:35:58;3.28;;;3.17;;
15418;SDS011;7808;43.712;23.098;2022-07-22T12:38:28;5.63;;;2.90;;
15418;SDS011;7808;43.712;23.098;2022-07-22T12:40:55;3.15;;;2.85;;
15418;SDS011;7808;43.712;23.098;2022-07-22T12:43:25;3.03;;;2.92;;
15418;SDS011;7808;43.712;23.098;2022-07-22T12:45:52;3.88;;;2.88;;
15418;SDS011;7808;43.712;23.098;2022-07-22T12:48:19;3.20;;;2.83;;
15418;SDS011;7808;43.712;23.098;2022-07-22T12:50:54;3.33;;;3.15;;
15418;SDS011;7808;43.712;23.098;2022-07-22T12:53:23;2.70;;;2.60;;
15418;SDS011;7808;43.712;23.098;2022-07-22T12:55:53;3.20;;;2.75;;
15418;SDS011;7808;43.712;23.098;2022-07-22T12:58:24;2.78;;;2.67;;
15418;SDS011;7808;43.712;23.098;2022-07-22T13:00:54;3.17;;;2.97;;
15418;SDS011;7808;43.712;23.098;2022-07-22T13:03:22;2.88;;;2.78;;
15418;SDS011;7808;43.712;23.098;2022-07-22T13:05:52;2.80;;;2.70;;
15418;SDS011;7808;43.712;23.098;2022-07-22T13:08:20;2.33;;;2.22;;
15418;SDS011;7808;43.712;23.098;2022-07-22T13:10:48;2.88;;;2.78;;
15418;SDS011;7808;43.712;23.098;2022-07-22T13:13:16;2.75;;;2.65;;
15418;SDS011;7808;43.712;23.098;2022-07-22T13:15:44;2.90;;;2.70;;
15418;SDS011;7808;43.712;23.098;2022-07-22T13:18:11;2.95;;;2.85;;
15418;SDS011;7808;43.712;23.098;2022-07-22T13:20:39;2.70;;;2.60;;
15418;SDS011;7808;43.712;23.098;2022-07-22T13:23:06;2.50;;;2.40;;
15418;SDS011;7808;43.712;23.098;2022-07-22T13:25:33;2.83;;;2.58;;
15418;SDS011;7808;43.712;23.098;2022-07-22T13:28:01;2.92;;;2.83;;
15418;SDS011;7808;43.712;23.098;2022-07-22T13:30:30;2.70;;;2.60;;
15418;SDS011;7808;43.712;23.098;2022-07-22T13:32:57;3.38;;;3.10;;
15418;SDS011;7808;43.712;23.098;2022-07-22T13:35:24;2.83;;;2.72;;
15418;SDS011;7808;43.712;23.098;2022-07-22T13:37:51;2.75;;;2.65;;
15418;SDS011;7808;43.712;23.098;2022-07-22T13:40:18;2.60;;;2.50;;
15418;SDS011;7808;43.712;23.098;2022-07-22T13:42:45;2.55;;;2.50;;
15418;SDS011;7808;43.712;23.098;2022-07-22T13:45:12;3.22;;;2.92;;
15418;SDS011;7808;43.712;23.098;2022-07-22T13:47:41;3.05;;;2.88;;
15418;SDS011;7808;43.712;23.098;2022-07-22T13:50:08;2.65;;;2.55;;
15418;SDS011;7808;43.712;23.098;2022-07-22T13:52:35;3.85;;;2.95;;
15418;SDS011;7808;43.712;23.098;2022-07-22T13:55:02;3.13;;;2.92;;
15418;SDS011;7808;43.712;23.098;2022-07-22T13:57:31;2.85;;;2.75;;
15418;SDS011;7808;43.712;23.098;2022-07-22T13:59:58;3.00;;;2.90;;
15418;SDS011;7808;43.712;23.098;2022-07-22T14:02:25;2.42;;;2.42;;
15418;SDS011;7808;43.712;23.098;2022-07-22T14:04:53;3.33;;;3.15;;
15418;SDS011;7808;43.712;23.098;2022-07-22T14:07:20;2.97;;;2.88;;
15418;SDS011;7808;43.712;23.098;2022-07-22T14:09:47;2.70;;;2.60;;
15418;SDS011;7808;43.712;23.098;2022-07-22T14:12:14;3.13;;;2.92;;
15418;SDS011;7808;43.712;23.098;2022-07-22T14:14:42;3.13;;;2.92;;
15418;SDS011;7808;43.712;23.098;2022-07-22T14:17:08;2.90;;;2.75;;
15418;SDS011;7808;43.712;23.098;2022-07-22T14:19:35;3.17;;;2.88;;
15418;SDS011;7808;43.712;23.098;2022-07-22T14:22:04;2.88;;;2.78;;
15418;SDS011;7808;43.712;23.098;2022-07-22T14:24:31;3.50;;;3.30;;
15418;SDS011;7808;43.712;23.098;2022-07-22T14:26:58;3.67;;;3.50;;
15418;SDS011;7808;43.712;23.098;2022-07-22T14:29:25;4.15;;;3.83;;
15418;SDS011;7808;43.712;23.098;2022-07-22T14:31:52;5.63;;;4.57;;
15418;SDS011;7808;43.712;23.098;2022-07-22T14:34:18;5.00;;;4.60;;
15418;SDS011;7808;43.712;23.098;2022-07-22T14:36:46;4.82;;;4.53;;
15418;SDS011;7808;43.712;23.098;2022-07-22T14:39:14;4.65;;;4.30;;
15418;SDS011;7808;43.712;23.098;2022-07-22T14:41:41;5.28;;;4.82;;
15418;SDS011;7808;43.712;23.098;2022-07-22T14:44:11;4.55;;;4.22;;
15418;SDS011;7808;43.712;23.098;2022-07-22T14:46:38;4.43;;;4.03;;
15418;SDS011;7808;43.712;23.098;2022-07-22T14:49:05;4.45;;;4.13;;
15418;SDS011;7808;43.712;23.098;2022-07-22T14:51:32;4.47;;;4.18;;
15418;SDS011;7808;43.712;23.098;2022-07-22T14:53:59;4.78;;;4.47;;